Qionghai, China
Current Conditions -  °F | °C
As of 9:00 AM on Sunday 21 Dec 2014 (Local Time) from ZJHK Reporting Station
Overcast Overcast  
Wind Chill: 63°   Ceiling: 1600
Heat Index: 63°   Visibility: 4mi
Dew Point: 55°   Wind: 16mph
Humidity: 77%   Direction: 30°NNE
Pressure: 30.18"   Gusts: NA
Location:  19.23°N, 110.47°E
Report Text: ZJHK 210100Z 03007MPS 7000 BKN016 OVC033 17/13 Q1022 NOSIG
Loading
Personal Weather Stations






























Interactive Weather Map New forecast layout! Learn more

10-Day Weather Forecast

Advertisements
Track Severe Weather on mobile